Time;durP1;ratioP1;P1;durP2;ratioP2;P2;SDS_P1;SDS_P2;PMS_P1;PMS_P2;Temp;Humidity;BMP_temperature;BMP_pressure;BME280_temperature;BME280_humidity;BME280_pressure;Samples;Min_cycle;Max_cycle;Signal;HPM_P1;HPM_P2
2023/01/07 00:01:54;;;;;;;;;;;7.70;99.90;;;;;;5060759;28;19988;-70
2023/01/07 00:04:22;;;;;;;;;;;7.80;99.90;;;;;;5061184;27;20135;-71
2023/01/07 00:06:51;;;;;;;;;;;7.70;99.90;;;;;;5058413;27;19962;-70
2023/01/07 00:09:18;;;;;;;;;;;7.70;99.90;;;;;;5060714;27;20086;-70
2023/01/07 00:11:46;;;;;;;;;;;7.70;99.90;;;;;;5060998;28;20000;-71
2023/01/07 00:14:13;;;;;;;;;;;7.70;99.90;;;;;;5060597;28;19921;-70
2023/01/07 00:16:40;;;;;;;;;;;7.70;99.90;;;;;;5060060;27;19961;-69
2023/01/07 00:19:07;;;;;;;;;;;7.70;99.90;;;;;;5060603;27;19988;-71
2023/01/07 00:21:34;;;;;;;;;;;7.80;99.90;;;;;;5060835;27;19944;-69
2023/01/07 00:24:01;;;;;;;;;;;7.70;99.90;;;;;;5060847;27;19983;-70
2023/01/07 00:26:30;;;;;;;;;;;7.70;99.90;;;;;;5059264;27;19981;-70
2023/01/07 00:28:58;;;;;;;;;;;7.80;99.90;;;;;;5060862;27;20175;-70
2023/01/07 00:31:26;;;;;;;;;;;7.80;99.90;;;;;;5060362;28;19921;-71
2023/01/07 00:34:07;;;;;;;;;;;7.80;99.90;;;;;;5058689;27;19925;-67
2023/01/07 00:36:35;;;;;;;;;;;7.80;99.90;;;;;;5059717;27;19920;-71
2023/01/07 00:39:03;;;;;;;;;;;7.80;99.90;;;;;;5060653;27;19952;-70
2023/01/07 00:41:29;;;;;;;;;;;7.80;99.90;;;;;;5060535;27;19962;-70
2023/01/07 00:43:57;;;;;;;;;;;7.80;99.90;;;;;;5060205;27;19959;-71
2023/01/07 00:46:28;;;;;;;;;;;7.80;99.90;;;;;;5056743;28;20000;-70
2023/01/07 00:48:55;;;;;;;;;;;7.80;99.90;;;;;;5060543;27;19928;-71
2023/01/07 00:51:21;;;;;;;;;;;7.80;99.90;;;;;;5060028;28;19970;-71
2023/01/07 00:53:48;;;;;;;;;;;7.80;99.90;;;;;;5060105;28;19988;-70
2023/01/07 00:56:16;;;;;;;;;;;7.80;99.90;;;;;;5059733;27;19971;-68
2023/01/07 00:58:43;;;;;;;;;;;7.70;99.90;;;;;;5047408;28;19921;-70
2023/01/07 01:01:11;;;;;;;;;;;7.70;99.90;;;;;;5039949;28;19921;-70
2023/01/07 01:03:38;;;;;;;;;;;7.70;99.90;;;;;;5040359;28;19984;-71
2023/01/07 01:06:06;;;;;;;;;;;7.70;99.90;;;;;;5039344;28;19949;-70
2023/01/07 01:08:35;;;;;;;;;;;7.70;99.90;;;;;;5036893;28;19960;-71
2023/01/07 01:11:03;;;;;;;;;;;7.70;99.90;;;;;;5040078;28;19921;-71
2023/01/07 01:13:30;;;;;;;;;;;7.70;99.90;;;;;;5042756;28;19921;-71
2023/01/07 01:15:56;;;;;;;;;;;7.70;99.90;;;;;;5039834;28;19928;-70
2023/01/07 01:18:24;;;;;;;;;;;7.70;99.90;;;;;;5039709;28;19928;-70
2023/01/07 01:20:51;;;;;;;;;;;7.70;99.90;;;;;;5040204;28;19948;-70
2023/01/07 01:23:18;;;;;;;;;;;7.80;99.90;;;;;;5039713;28;20185;-70
2023/01/07 01:25:44;;;;;;;;;;;7.70;99.90;;;;;;5039783;28;19921;-71
2023/01/07 01:28:11;;;;;;;;;;;7.70;99.90;;;;;;5039858;28;19996;-70
2023/01/07 01:30:37;;;;;;;;;;;7.60;99.90;;;;;;5040237;28;19922;-71
2023/01/07 01:33:04;;;;;;;;;;;7.60;99.90;;;;;;5040110;28;19921;-71
2023/01/07 01:35:32;;;;;;;;;;;7.60;99.90;;;;;;5039581;28;20228;-70
2023/01/07 01:37:59;;;;;;;;;;;7.60;99.90;;;;;;5039437;28;20124;-70
2023/01/07 01:40:28;;;;;;;;;;;7.60;99.90;;;;;;5039607;28;19921;-69
2023/01/07 01:42:55;;;;;;;;;;;7.60;99.90;;;;;;5039799;28;19984;-70
2023/01/07 01:45:25;;;;;;;;;;;7.60;99.90;;;;;;5038183;28;19921;-71
2023/01/07 01:47:54;;;;;;;;;;;7.60;99.90;;;;;;5042611;28;19971;-70
2023/01/07 01:50:22;;;;;;;;;;;7.60;99.90;;;;;;5043069;28;19996;-70
2023/01/07 01:52:52;;;;;;;;;;;7.60;99.90;;;;;;5039243;28;19997;-70
2023/01/07 01:55:21;;;;;;;;;;;7.60;99.90;;;;;;5060730;28;19921;-70
2023/01/07 01:57:50;;;;;;;;;;;7.60;99.90;;;;;;5062245;27;19927;-71
2023/01/07 02:00:16;;;;;;;;;;;7.70;99.90;;;;;;5062898;27;20262;-69
2023/01/07 02:02:46;;;;;;;;;;;7.60;99.90;;;;;;5062657;27;20209;-70
2023/01/07 02:05:14;;;;;;;;;;;7.70;99.90;;;;;;5059617;27;19980;-70
2023/01/07 02:07:41;;;;;;;;;;;7.60;99.90;;;;;;5061796;28;19928;-71
2023/01/07 02:10:12;;;;;;;;;;;7.70;99.90;;;;;;5062355;28;19952;-70
2023/01/07 02:12:46;;;;;;;;;;;7.60;99.90;;;;;;5062619;27;19991;-70
2023/01/07 02:15:16;;;;;;;;;;;7.70;99.90;;;;;;5060098;27;19987;-69
2023/01/07 02:17:56;;;;;;;;;;;7.70;99.90;;;;;;5061956;27;19942;-71
2023/01/07 02:20:29;;;;;;;;;;;7.70;99.90;;;;;;5062477;27;19956;-71
2023/01/07 02:23:13;;;;;;;;;;;7.70;99.90;;;;;;5062916;27;19944;-70
2023/01/07 02:25:57;;;;;;;;;;;7.70;99.90;;;;;;5043305;27;19960;-71
2023/01/07 02:28:36;;;;;;;;;;;7.70;99.90;;;;;;5062117;28;20193;-71
2023/01/07 02:31:18;;;;;;;;;;;7.70;99.90;;;;;;5042199;28;20227;-70
2023/01/07 02:33:53;;;;;;;;;;;7.70;99.90;;;;;;5042381;28;19984;-70
2023/01/07 02:36:26;;;;;;;;;;;7.60;99.90;;;;;;5041317;28;19952;-71
2023/01/07 02:38:58;;;;;;;;;;;7.60;99.90;;;;;;5042397;28;20228;-70
2023/01/07 02:41:29;;;;;;;;;;;7.60;99.90;;;;;;5042260;28;19959;-70
2023/01/07 02:44:01;;;;;;;;;;;7.60;99.90;;;;;;5041881;28;19951;-70
2023/01/07 02:46:30;;;;;;;;;;;7.60;99.90;;;;;;5041781;28;19922;-71
2023/01/07 02:48:59;;;;;;;;;;;7.60;99.90;;;;;;5042349;28;19960;-71
2023/01/07 02:51:31;;;;;;;;;;;7.60;99.90;;;;;;5038078;27;19966;-70
2023/01/07 02:53:58;;;;;;;;;;;7.60;99.90;;;;;;5041975;28;19927;-70
2023/01/07 02:56:31;;;;;;;;;;;7.60;99.90;;;;;;5040083;28;19992;-71
2023/01/07 02:59:13;;;;;;;;;;;7.60;99.90;;;;;;5061794;28;20351;-70
2023/01/07 03:01:52;;;;;;;;;;;7.60;99.90;;;;;;5081630;27;20228;-71
2023/01/07 03:04:34;;;;;;;;;;;7.60;99.90;;;;;;5081863;28;20054;-70
2023/01/07 03:07:08;;;;;;;;;;;7.50;99.90;;;;;;5080926;28;20136;-69
2023/01/07 03:09:40;;;;;;;;;;;7.50;99.90;;;;;;5081456;28;20097;-70
2023/01/07 03:12:09;;;;;;;;;;;7.50;99.90;;;;;;5081541;28;20367;-70
2023/01/07 03:14:38;;;;;;;;;;;7.50;99.90;;;;;;5081789;28;19920;-70
2023/01/07 03:17:07;;;;;;;;;;;7.50;99.90;;;;;;5064095;28;19955;-71
2023/01/07 03:19:38;;;;;;;;;;;7.50;99.90;;;;;;5041591;28;19984;-70
2023/01/07 03:22:06;;;;;;;;;;;7.50;99.90;;;;;;5041906;28;19988;-70
2023/01/07 03:24:33;;;;;;;;;;;7.50;99.90;;;;;;5041770;28;19921;-71
2023/01/07 03:27:01;;;;;;;;;;;7.50;99.90;;;;;;5040878;28;19957;-71
2023/01/07 03:29:28;;;;;;;;;;;7.50;99.90;;;;;;5041150;28;19928;-70
2023/01/07 03:31:57;;;;;;;;;;;7.50;99.90;;;;;;5041586;28;19951;-71
2023/01/07 03:34:25;;;;;;;;;;;7.50;99.90;;;;;;5139233;27;19923;-70
2023/01/07 03:36:55;;;;;;;;;;;7.60;99.90;;;;;;5165545;27;20153;-70
2023/01/07 03:39:23;;;;;;;;;;;7.50;99.90;;;;;;5166301;27;20274;-69
2023/01/07 03:44:34;;;;;;;;;;;7.60;99.90;;;;;;5041677;28;19978;-69
2023/01/07 03:47:01;;;;;;;;;;;7.50;99.90;;;;;;5041246;28;19928;-69
2023/01/07 03:49:28;;;;;;;;;;;7.50;99.90;;;;;;5041080;28;19984;-69
2023/01/07 03:51:56;;;;;;;;;;;7.50;99.90;;;;;;5041238;27;19928;-69
2023/01/07 03:54:23;;;;;;;;;;;7.50;99.90;;;;;;5041469;28;19921;-70
2023/01/07 03:56:49;;;;;;;;;;;7.50;99.90;;;;;;5040876;27;19943;-69
2023/01/07 03:59:16;;;;;;;;;;;7.50;99.90;;;;;;5040860;28;20182;-70
2023/01/07 04:01:43;;;;;;;;;;;7.50;99.90;;;;;;5041098;28;19963;-70
2023/01/07 04:04:09;;;;;;;;;;;7.50;99.90;;;;;;5044704;28;19980;-70
2023/01/07 04:06:36;;;;;;;;;;;7.60;99.90;;;;;;5060264;27;19980;-69
2023/01/07 04:09:04;;;;;;;;;;;7.50;99.90;;;;;;5060392;27;19927;-70
2023/01/07 04:11:31;;;;;;;;;;;7.50;99.90;;;;;;5060789;27;19959;-69
2023/01/07 04:13:59;;;;;;;;;;;7.50;99.90;;;;;;5060631;27;19944;-69
2023/01/07 04:16:26;;;;;;;;;;;7.50;99.90;;;;;;5060204;27;20008;-70
2023/01/07 04:18:52;;;;;;;;;;;7.50;99.90;;;;;;5060945;27;19984;-69
2023/01/07 04:21:19;;;;;;;;;;;7.50;99.90;;;;;;5060812;28;19963;-70
2023/01/07 04:23:46;;;;;;;;;;;7.50;99.90;;;;;;5060652;27;19921;-69
2023/01/07 04:26:14;;;;;;;;;;;7.60;99.90;;;;;;5059671;27;19948;-69
2023/01/07 04:28:40;;;;;;;;;;;7.50;99.90;;;;;;5060236;28;19995;-69
2023/01/07 04:31:07;;;;;;;;;;;7.60;99.90;;;;;;5060507;27;19928;-69
2023/01/07 04:33:34;;;;;;;;;;;7.60;99.90;;;;;;5060543;28;19960;-69
2023/01/07 04:36:01;;;;;;;;;;;7.50;99.90;;;;;;5059740;27;19921;-70
2023/01/07 04:38:28;;;;;;;;;;;7.50;99.90;;;;;;5060577;27;20058;-70
2023/01/07 04:40:54;;;;;;;;;;;7.60;99.90;;;;;;5060300;27;19921;-69
2023/01/07 04:43:22;;;;;;;;;;;7.60;99.90;;;;;;5060515;28;19987;-69
2023/01/07 04:45:49;;;;;;;;;;;7.60;99.90;;;;;;5059791;28;20094;-70
2023/01/07 04:48:15;;;;;;;;;;;7.60;99.90;;;;;;5060057;28;19921;-70
2023/01/07 04:50:42;;;;;;;;;;;7.60;99.90;;;;;;5060223;27;19984;-69
2023/01/07 04:53:09;;;;;;;;;;;7.60;99.90;;;;;;5047514;27;19940;-70
2023/01/07 04:55:35;;;;;;;;;;;7.60;99.90;;;;;;5040157;28;20247;-69
2023/01/07 04:58:02;;;;;;;;;;;7.50;99.90;;;;;;5039694;28;19921;-69
2023/01/07 05:00:30;;;;;;;;;;;7.60;99.90;;;;;;5040336;28;20268;-70
2023/01/07 05:02:56;;;;;;;;;;;7.50;99.90;;;;;;5040305;28;19925;-69
2023/01/07 05:05:23;;;;;;;;;;;7.50;99.90;;;;;;5040220;28;19952;-69
2023/01/07 05:07:50;;;;;;;;;;;7.50;99.90;;;;;;5039351;28;19921;-70
2023/01/07 05:10:16;;;;;;;;;;;7.50;99.90;;;;;;5039944;28;19921;-70
2023/01/07 05:12:43;;;;;;;;;;;7.50;99.90;;;;;;5040473;28;19921;-69
2023/01/07 05:15:10;;;;;;;;;;;7.50;99.90;;;;;;5040180;28;19921;-69
2023/01/07 05:17:38;;;;;;;;;;;7.50;99.90;;;;;;5039659;28;19921;-70
2023/01/07 05:20:06;;;;;;;;;;;7.50;99.90;;;;;;5040945;28;19929;-69
2023/01/07 05:22:33;;;;;;;;;;;7.60;99.90;;;;;;5043428;28;19962;-69
2023/01/07 05:24:59;;;;;;;;;;;7.60;99.90;;;;;;5043532;28;19928;-70
2023/01/07 05:27:26;;;;;;;;;;;7.60;99.90;;;;;;5043025;28;19988;-69
2023/01/07 05:29:53;;;;;;;;;;;7.60;99.90;;;;;;5043214;28;20169;-69
2023/01/07 05:32:19;;;;;;;;;;;7.50;99.90;;;;;;5043208;28;19921;-69
2023/01/07 05:34:47;;;;;;;;;;;7.50;99.90;;;;;;5043325;28;19921;-70
2023/01/07 05:37:14;;;;;;;;;;;7.50;99.90;;;;;;5043291;28;19984;-69
2023/01/07 05:39:40;;;;;;;;;;;7.50;99.90;;;;;;5043231;28;20030;-70
2023/01/07 05:42:07;;;;;;;;;;;7.50;99.90;;;;;;5043299;28;19921;-69
2023/01/07 05:44:34;;;;;;;;;;;7.50;99.90;;;;;;5043116;28;20205;-69
2023/01/07 05:47:00;;;;;;;;;;;7.50;99.90;;;;;;5042528;28;20205;-70
2023/01/07 05:49:27;;;;;;;;;;;7.50;99.90;;;;;;5042945;28;19948;-69
2023/01/07 05:51:55;;;;;;;;;;;7.50;99.90;;;;;;5043404;28;19956;-69
2023/01/07 05:54:22;;;;;;;;;;;7.50;99.90;;;;;;5042818;28;19936;-69
2023/01/07 05:56:48;;;;;;;;;;;7.50;99.90;;;;;;5042601;28;20178;-70
2023/01/07 05:59:15;;;;;;;;;;;7.50;99.90;;;;;;5042759;28;19984;-69
2023/01/07 06:01:41;;;;;;;;;;;7.50;99.90;;;;;;5043070;28;20221;-69
2023/01/07 06:04:08;;;;;;;;;;;7.50;99.90;;;;;;5042875;28;19952;-69
2023/01/07 06:06:35;;;;;;;;;;;7.50;99.90;;;;;;5058221;28;19980;-69
2023/01/07 06:09:03;;;;;;;;;;;7.50;99.90;;;;;;5062882;28;19960;-70
2023/01/07 06:11:29;;;;;;;;;;;7.50;99.90;;;;;;5063143;27;19980;-70
2023/01/07 06:13:56;;;;;;;;;;;7.50;99.90;;;;;;5063065;27;20153;-69
2023/01/07 06:16:23;;;;;;;;;;;7.40;99.90;;;;;;5061801;27;19988;-69
2023/01/07 06:18:49;;;;;;;;;;;7.50;99.90;;;;;;5062517;27;19956;-70
2023/01/07 06:21:17;;;;;;;;;;;7.50;99.90;;;;;;5062815;27;19956;-69
2023/01/07 06:23:43;;;;;;;;;;;7.40;99.90;;;;;;5062848;27;19927;-69
2023/01/07 06:26:11;;;;;;;;;;;7.40;99.90;;;;;;5062280;27;19952;-69
2023/01/07 06:28:38;;;;;;;;;;;7.40;99.90;;;;;;5061216;27;19996;-69
2023/01/07 06:31:05;;;;;;;;;;;7.50;99.90;;;;;;5055832;28;20006;-70
2023/01/07 06:33:31;;;;;;;;;;;7.50;99.90;;;;;;5062240;28;19920;-69
2023/01/07 06:35:58;;;;;;;;;;;7.50;99.90;;;;;;5062174;28;20231;-70
2023/01/07 06:38:25;;;;;;;;;;;7.50;99.90;;;;;;5062128;27;20217;-69
2023/01/07 06:40:51;;;;;;;;;;;7.50;99.90;;;;;;5062395;28;19988;-69
2023/01/07 06:43:19;;;;;;;;;;;7.50;99.90;;;;;;5062097;27;19921;-69
2023/01/07 06:45:46;;;;;;;;;;;7.40;99.90;;;;;;5053357;27;19921;-70
2023/01/07 06:48:12;;;;;;;;;;;7.50;99.90;;;;;;5041799;28;19960;-69
2023/01/07 06:50:39;;;;;;;;;;;7.50;99.90;;;;;;5042062;28;20256;-69
2023/01/07 06:53:06;;;;;;;;;;;7.50;99.90;;;;;;5042043;28;19984;-70
2023/01/07 06:55:32;;;;;;;;;;;7.50;99.90;;;;;;5041900;28;19922;-70
2023/01/07 06:57:59;;;;;;;;;;;7.50;99.90;;;;;;5041495;28;19947;-69
2023/01/07 07:00:27;;;;;;;;;;;7.50;99.90;;;;;;5042065;28;19945;-69
2023/01/07 07:02:54;;;;;;;;;;;7.50;99.90;;;;;;5042248;28;19925;-69
2023/01/07 07:05:20;;;;;;;;;;;7.50;99.90;;;;;;5041711;28;19921;-69
2023/01/07 07:07:47;;;;;;;;;;;7.50;99.90;;;;;;5041297;28;19948;-69
2023/01/07 07:10:14;;;;;;;;;;;7.60;99.90;;;;;;5041868;28;19967;-69
2023/01/07 07:12:40;;;;;;;;;;;7.50;99.90;;;;;;5042100;28;20149;-69
2023/01/07 07:15:08;;;;;;;;;;;7.60;99.90;;;;;;5039891;28;19921;-69
2023/01/07 07:17:35;;;;;;;;;;;7.60;99.90;;;;;;5041005;28;19928;-70
2023/01/07 07:20:02;;;;;;;;;;;7.60;99.90;;;;;;5041700;28;19956;-70
2023/01/07 07:22:29;;;;;;;;;;;7.60;99.90;;;;;;5041638;28;19984;-69
2023/01/07 07:24:56;;;;;;;;;;;7.60;99.90;;;;;;5041568;28;20124;-69
2023/01/07 07:27:22;;;;;;;;;;;7.60;99.90;;;;;;5041000;28;19984;-70
2023/01/07 07:29:49;;;;;;;;;;;7.60;99.90;;;;;;5041241;28;19989;-70
2023/01/07 07:32:16;;;;;;;;;;;7.60;99.90;;;;;;5041475;28;20005;-70
2023/01/07 07:34:43;;;;;;;;;;;7.60;99.90;;;;;;5041415;28;20289;-70
2023/01/07 07:37:10;;;;;;;;;;;7.60;99.90;;;;;;5040703;28;19993;-70
2023/01/07 07:39:37;;;;;;;;;;;7.60;99.90;;;;;;5041521;28;19952;-69
2023/01/07 07:42:04;;;;;;;;;;;7.60;99.90;;;;;;5041543;28;19921;-70
2023/01/07 07:44:30;;;;;;;;;;;7.60;99.90;;;;;;5040900;28;19984;-70
2023/01/07 07:46:57;;;;;;;;;;;7.60;99.90;;;;;;5040523;28;20017;-69
2023/01/07 07:49:24;;;;;;;;;;;7.60;99.90;;;;;;5041032;28;20073;-70
2023/01/07 07:51:51;;;;;;;;;;;7.60;99.90;;;;;;5041164;28;20184;-69
2023/01/07 07:54:18;;;;;;;;;;;7.70;99.90;;;;;;5041506;28;20318;-69
2023/01/07 07:56:45;;;;;;;;;;;7.70;99.90;;;;;;5040636;28;19952;-69
2023/01/07 07:59:11;;;;;;;;;;;7.70;99.90;;;;;;5041397;27;19956;-69
2023/01/07 08:01:38;;;;;;;;;;;7.70;99.90;;;;;;5045918;28;19921;-69
2023/01/07 08:04:06;;;;;;;;;;;7.70;99.90;;;;;;5039896;28;19965;-70
2023/01/07 08:06:33;;;;;;;;;;;7.70;99.90;;;;;;5058132;28;19984;-69
2023/01/07 08:09:01;;;;;;;;;;;7.70;99.90;;;;;;5125409;27;19919;-70
2023/01/07 08:11:28;;;;;;;;;;;7.70;99.90;;;;;;5165584;27;20226;-69
2023/01/07 08:13:54;;;;;;;;;;;7.70;99.90;;;;;;5163977;27;20214;-70
2023/01/07 08:16:21;;;;;;;;;;;7.60;99.90;;;;;;5165242;27;19925;-69
2023/01/07 08:18:48;;;;;;;;;;;7.70;99.90;;;;;;5145767;27;20228;-69
2023/01/07 08:21:14;;;;;;;;;;;7.70;99.90;;;;;;5056178;28;19928;-69
2023/01/07 08:23:41;;;;;;;;;;;7.70;99.90;;;;;;5041130;28;19989;-69
2023/01/07 08:26:09;;;;;;;;;;;7.80;99.90;;;;;;5040252;28;19968;-70
2023/01/07 08:28:36;;;;;;;;;;;7.70;99.90;;;;;;5040589;28;19964;-70
2023/01/07 08:31:03;;;;;;;;;;;7.80;99.90;;;;;;5041100;28;20113;-69
2023/01/07 08:33:38;;;;;;;;;;;7.70;99.90;;;;;;5039897;28;19921;-70
2023/01/07 08:36:06;;;;;;;;;;;7.70;99.90;;;;;;5052492;28;19935;-69
2023/01/07 08:38:32;;;;;;;;;;;7.80;99.90;;;;;;5060841;27;19983;-70
2023/01/07 08:40:59;;;;;;;;;;;7.80;99.90;;;;;;5060757;27;19925;-70
2023/01/07 08:43:27;;;;;;;;;;;7.80;99.90;;;;;;5059482;28;19921;-70
2023/01/07 08:45:54;;;;;;;;;;;7.80;99.90;;;;;;5059970;27;20049;-70
2023/01/07 08:48:21;;;;;;;;;;;7.80;99.90;;;;;;5060368;27;20015;-70
2023/01/07 08:50:49;;;;;;;;;;;7.80;99.90;;;;;;5060669;27;19988;-70
2023/01/07 08:53:16;;;;;;;;;;;7.90;99.90;;;;;;5060391;28;19921;-70
2023/01/07 08:55:42;;;;;;;;;;;7.90;99.90;;;;;;5047056;27;19959;-70
2023/01/07 08:58:09;;;;;;;;;;;7.90;99.90;;;;;;5043714;28;19928;-69
2023/01/07 09:00:37;;;;;;;;;;;7.90;99.90;;;;;;5043942;28;20228;-70
2023/01/07 09:03:04;;;;;;;;;;;7.90;99.90;;;;;;5044194;28;19956;-70
2023/01/07 09:05:30;;;;;;;;;;;7.90;99.90;;;;;;5043942;28;20288;-69
2023/01/07 09:07:57;;;;;;;;;;;8.00;99.90;;;;;;5043133;28;19955;-69
2023/01/07 09:10:24;;;;;;;;;;;8.00;99.90;;;;;;5043795;28;20037;-69
2023/01/07 09:12:50;;;;;;;;;;;8.00;99.90;;;;;;5048759;28;19948;-69
2023/01/07 09:15:17;;;;;;;;;;;8.00;99.90;;;;;;5054569;27;19953;-69
2023/01/07 09:17:45;;;;;;;;;;;8.00;99.90;;;;;;5042985;28;20007;-70
2023/01/07 09:20:12;;;;;;;;;;;8.10;99.90;;;;;;5043542;28;19993;-74
2023/01/07 09:22:39;;;;;;;;;;;8.10;99.90;;;;;;5094607;27;19953;-70
2023/01/07 09:25:06;;;;;;;;;;;8.10;99.90;;;;;;5043336;27;19952;-69
2023/01/07 09:27:32;;;;;;;;;;;8.10;99.90;;;;;;5056172;28;20183;-69
2023/01/07 09:29:59;;;;;;;;;;;8.20;99.90;;;;;;5047118;27;19925;-70
2023/01/07 09:32:26;;;;;;;;;;;8.20;99.90;;;;;;5054194;28;19992;-69
2023/01/07 09:34:54;;;;;;;;;;;8.20;99.90;;;;;;5063580;27;19963;-69
2023/01/07 09:37:21;;;;;;;;;;;8.20;99.90;;;;;;5062881;27;19948;-71
2023/01/07 09:39:47;;;;;;;;;;;8.30;99.90;;;;;;5062658;28;19984;-69
2023/01/07 09:42:21;;;;;;;;;;;8.30;99.90;;;;;;5049413;27;19985;-68
2023/01/07 09:44:53;;;;;;;;;;;8.30;99.90;;;;;;5043092;28;19953;-68
2023/01/07 09:47:21;;;;;;;;;;;8.40;99.90;;;;;;5042792;28;19988;-69
2023/01/07 09:49:50;;;;;;;;;;;8.40;99.90;;;;;;5043056;28;19921;-69
2023/01/07 09:52:21;;;;;;;;;;;8.40;99.90;;;;;;5043516;28;19943;-69
2023/01/07 09:54:51;;;;;;;;;;;8.40;99.90;;;;;;5042973;28;19992;-69
2023/01/07 09:57:17;;;;;;;;;;;8.50;99.90;;;;;;5042226;28;19928;-69
2023/01/07 09:59:45;;;;;;;;;;;8.50;99.90;;;;;;5043157;28;19994;-69
2023/01/07 10:02:20;;;;;;;;;;;8.50;99.90;;;;;;5042949;28;20284;-69
2023/01/07 10:04:50;;;;;;;;;;;8.60;99.90;;;;;;5043126;28;19921;-70
2023/01/07 10:07:23;;;;;;;;;;;8.60;99.90;;;;;;5041767;28;20284;-69
2023/01/07 10:09:55;;;;;;;;;;;8.60;99.90;;;;;;5043151;28;19928;-69
2023/01/07 10:12:24;;;;;;;;;;;8.70;99.90;;;;;;5043239;28;19992;-69
2023/01/07 10:14:56;;;;;;;;;;;8.70;99.90;;;;;;5042536;28;20280;-69
2023/01/07 10:17:28;;;;;;;;;;;8.70;99.90;;;;;;5042144;28;19921;-68
2023/01/07 10:19:58;;;;;;;;;;;8.80;99.90;;;;;;5042802;28;20213;-68
2023/01/07 10:22:29;;;;;;;;;;;8.80;99.90;;;;;;5043020;28;19964;-68
2023/01/07 10:24:57;;;;;;;;;;;8.90;99.90;;;;;;5042482;28;20275;-69
2023/01/07 10:27:28;;;;;;;;;;;8.80;99.90;;;;;;5042374;28;19921;-69
2023/01/07 10:29:58;;;;;;;;;;;8.80;99.90;;;;;;5045594;28;19925;-68
2023/01/07 10:32:28;;;;;;;;;;;8.90;99.90;;;;;;5050857;28;19921;-69
2023/01/07 10:34:57;;;;;;;;;;;8.90;99.90;;;;;;5042496;28;20191;-70
2023/01/07 10:37:27;;;;;;;;;;;9.00;99.90;;;;;;5042044;28;19921;-69
2023/01/07 10:39:59;;;;;;;;;;;9.00;99.90;;;;;;5042059;28;20288;-71
2023/01/07 10:42:30;;;;;;;;;;;9.00;99.90;;;;;;5042674;28;19921;-69
2023/01/07 10:45:11;;;;;;;;;;;9.00;99.90;;;;;;5042548;28;20120;-70
2023/01/07 10:47:45;;;;;;;;;;;9.10;99.90;;;;;;5057305;28;19984;-71
2023/01/07 10:50:30;;;;;;;;;;;9.10;99.90;;;;;;5051919;28;20239;-70
2023/01/07 10:53:02;;;;;;;;;;;9.10;99.90;;;;;;5042413;28;19921;-70
2023/01/07 10:55:41;;;;;;;;;;;9.20;99.90;;;;;;5042232;28;19988;-71
2023/01/07 10:58:09;;;;;;;;;;;9.20;99.90;;;;;;5042079;28;19960;-70
2023/01/07 11:00:35;;;;;;;;;;;9.10;99.90;;;;;;5042353;28;19988;-70
2023/01/07 11:03:02;;;;;;;;;;;9.10;99.90;;;;;;5054634;28;19921;-70
2023/01/07 11:05:35;;;;;;;;;;;9.10;99.90;;;;;;5042169;28;19943;-72
2023/01/07 11:08:05;;;;;;;;;;;9.10;99.90;;;;;;5041691;28;19952;-70
2023/01/07 11:10:34;;;;;;;;;;;9.00;99.90;;;;;;5041951;28;19996;-70
2023/01/07 11:13:02;;;;;;;;;;;9.00;99.90;;;;;;5042215;28;20174;-70
2023/01/07 11:15:31;;;;;;;;;;;9.00;99.90;;;;;;5041712;28;19988;-71
2023/01/07 11:18:00;;;;;;;;;;;8.90;99.90;;;;;;5040009;28;19944;-71
2023/01/07 11:20:44;;;;;;;;;;;8.90;99.90;;;;;;5041377;28;20090;-70
2023/01/07 11:23:31;;;;;;;;;;;8.90;99.90;;;;;;5046155;28;19959;-71
2023/01/07 11:26:16;;;;;;;;;;;8.90;99.90;;;;;;5059695;27;20248;-71
2023/01/07 11:28:47;;;;;;;;;;;8.90;99.90;;;;;;5041787;28;19987;-70
2023/01/07 11:31:13;;;;;;;;;;;9.00;99.90;;;;;;5041383;28;19996;-70
2023/01/07 11:33:41;;;;;;;;;;;9.00;99.90;;;;;;5041799;28;19988;-70
2023/01/07 11:36:08;;;;;;;;;;;9.10;99.90;;;;;;5040869;28;19981;-70
2023/01/07 11:38:36;;;;;;;;;;;9.10;99.90;;;;;;5050629;28;19928;-70
2023/01/07 11:41:04;;;;;;;;;;;9.20;99.90;;;;;;5061451;27;19928;-70
2023/01/07 11:43:33;;;;;;;;;;;9.20;99.90;;;;;;5061521;27;20097;-70
2023/01/07 11:46:00;;;;;;;;;;;9.20;99.90;;;;;;5061016;28;19921;-70
2023/01/07 11:48:29;;;;;;;;;;;9.20;99.90;;;;;;5053953;28;19952;-71
2023/01/07 11:50:56;;;;;;;;;;;9.20;99.90;;;;;;5040468;28;20262;-70
2023/01/07 11:53:27;;;;;;;;;;;9.20;99.90;;;;;;5040526;28;19974;-70
2023/01/07 11:55:58;;;;;;;;;;;9.20;99.90;;;;;;5040735;28;20153;-69
2023/01/07 11:58:26;;;;;;;;;;;9.20;99.90;;;;;;5040893;28;19927;-70
2023/01/07 12:01:04;;;;;;;;;;;9.20;99.90;;;;;;5041550;28;19932;-70
2023/01/07 12:03:30;;;;;;;;;;;9.20;99.90;;;;;;5054797;28;20262;-70
2023/01/07 12:05:58;;;;;;;;;;;9.30;99.90;;;;;;5060848;27;19951;-71
2023/01/07 12:08:26;;;;;;;;;;;9.30;99.90;;;;;;5061130;27;19991;-71
2023/01/07 12:10:56;;;;;;;;;;;9.30;99.90;;;;;;5061035;27;19964;-70
2023/01/07 12:13:26;;;;;;;;;;;9.30;99.90;;;;;;5061027;27;20170;-70
2023/01/07 12:15:54;;;;;;;;;;;9.30;99.90;;;;;;5060760;27;19921;-71
2023/01/07 12:18:38;;;;;;;;;;;9.30;99.90;;;;;;5060875;27;19988;-71
2023/01/07 12:21:26;;;;;;;;;;;9.20;99.90;;;;;;5061134;27;19927;-71
2023/01/07 12:24:00;;;;;;;;;;;9.30;99.90;;;;;;5064049;27;19927;-71
2023/01/07 12:26:31;;;;;;;;;;;9.30;99.90;;;;;;5059615;27;20216;-71
2023/01/07 12:29:05;;;;;;;;;;;9.40;99.90;;;;;;5051224;28;19928;-71
2023/01/07 12:31:37;;;;;;;;;;;9.50;99.90;;;;;;5046044;28;19921;-71
2023/01/07 12:34:10;;;;;;;;;;;9.60;99.90;;;;;;5040691;28;19967;-72
2023/01/07 12:36:41;;;;;;;;;;;9.70;99.90;;;;;;5054624;28;19981;-72
2023/01/07 12:39:10;;;;;;;;;;;9.80;99.90;;;;;;5060744;27;19921;-71
2023/01/07 12:41:38;;;;;;;;;;;10.10;99.90;;;;;;5060857;27;19984;-70
2023/01/07 12:44:10;;;;;;;;;;;10.50;99.90;;;;;;5054959;27;19959;-71
2023/01/07 12:46:40;;;;;;;;;;;10.60;99.90;;;;;;5037055;28;19988;-71
2023/01/07 12:49:11;;;;;;;;;;;10.70;99.90;;;;;;5040845;28;19952;-71
2023/01/07 12:51:42;;;;;;;;;;;10.40;99.90;;;;;;5040736;28;19921;-71
2023/01/07 12:54:11;;;;;;;;;;;10.40;99.90;;;;;;5040701;28;19988;-70
2023/01/07 12:56:42;;;;;;;;;;;10.30;99.90;;;;;;5039867;28;20120;-70
2023/01/07 12:59:13;;;;;;;;;;;10.20;99.90;;;;;;5040778;28;19952;-70
2023/01/07 13:01:44;;;;;;;;;;;10.10;99.90;;;;;;5050385;28;19921;-70
2023/01/07 13:04:19;;;;;;;;;;;10.00;99.90;;;;;;5060295;28;19960;-71
2023/01/07 13:06:51;;;;;;;;;;;10.00;99.90;;;;;;5059674;28;19987;-71
2023/01/07 13:09:24;;;;;;;;;;;10.00;99.90;;;;;;5060568;28;19948;-70
2023/01/07 13:14:41;;;;;;;;;;;10.20;99.90;;;;;;5060047;28;19939;-71
2023/01/07 13:17:14;;;;;;;;;;;10.50;99.90;;;;;;5059610;28;19952;-70
2023/01/07 13:19:42;;;;;;;;;;;10.60;99.90;;;;;;5060217;27;19921;-72
2023/01/07 13:22:13;;;;;;;;;;;10.80;99.90;;;;;;5040306;28;19928;-70
2023/01/07 13:24:47;;;;;;;;;;;11.00;99.90;;;;;;5058347;28;19980;-72
2023/01/07 13:27:19;;;;;;;;;;;11.10;99.90;;;;;;5054624;27;19921;-71
2023/01/07 13:29:53;;;;;;;;;;;11.10;99.90;;;;;;5047344;28;19980;-70
2023/01/07 13:32:44;;;;;;;;;;;11.10;99.90;;;;;;5040315;28;19921;-70
2023/01/07 13:35:24;;;;;;;;;;;11.10;99.90;;;;;;5048321;28;19969;-70
2023/01/07 13:37:59;;;;;;;;;;;11.00;99.90;;;;;;5059473;27;20122;-70
2023/01/07 13:40:44;;;;;;;;;;;10.90;99.90;;;;;;5058828;27;19988;-71
2023/01/07 13:43:18;;;;;;;;;;;10.90;99.90;;;;;;5048692;27;19931;-71
2023/01/07 13:45:48;;;;;;;;;;;10.90;99.90;;;;;;5057242;28;19921;-71
2023/01/07 13:48:18;;;;;;;;;;;10.80;99.90;;;;;;5062521;28;20209;-70
2023/01/07 13:50:49;;;;;;;;;;;10.70;99.90;;;;;;5061536;27;19928;-71
2023/01/07 13:53:30;;;;;;;;;;;10.60;99.90;;;;;;5063572;28;19921;-71
2023/01/07 13:56:22;;;;;;;;;;;10.50;99.90;;;;;;5062994;28;19964;-72
2023/01/07 13:58:52;;;;;;;;;;;10.40;99.90;;;;;;5063088;27;20205;-71
2023/01/07 14:01:19;;;;;;;;;;;10.30;99.90;;;;;;5063166;27;19921;-72
2023/01/07 14:03:53;;;;;;;;;;;10.40;99.90;;;;;;5061383;28;20117;-76
2023/01/07 14:06:41;;;;;;;;;;;10.30;99.90;;;;;;5062418;28;19987;-70
2023/01/07 14:09:14;;;;;;;;;;;10.30;99.90;;;;;;5051131;28;19922;-70
2023/01/07 14:12:00;;;;;;;;;;;10.20;99.90;;;;;;5042918;28;19921;-70
2023/01/07 14:14:31;;;;;;;;;;;10.20;99.90;;;;;;5043153;28;20002;-71
2023/01/07 14:17:02;;;;;;;;;;;10.10;99.90;;;;;;5049477;28;20172;-71
2023/01/07 14:19:32;;;;;;;;;;;10.00;99.90;;;;;;5053425;28;19985;-71
2023/01/07 14:22:04;;;;;;;;;;;10.00;99.90;;;;;;5077400;27;19923;-71
2023/01/07 14:24:46;;;;;;;;;;;9.90;99.90;;;;;;5168234;27;20163;-71
2023/01/07 14:27:27;;;;;;;;;;;9.90;99.90;;;;;;5111880;27;20218;-71
2023/01/07 14:29:56;;;;;;;;;;;9.80;99.90;;;;;;5168245;27;19926;-70
2023/01/07 14:32:25;;;;;;;;;;;9.80;99.90;;;;;;5146297;27;19940;-71
2023/01/07 14:35:00;;;;;;;;;;;9.80;99.90;;;;;;5042831;28;19932;-71
2023/01/07 14:37:31;;;;;;;;;;;9.70;99.90;;;;;;5046529;28;19956;-71
2023/01/07 14:39:58;;;;;;;;;;;9.70;99.90;;;;;;5062524;27;19921;-70
2023/01/07 14:42:48;;;;;;;;;;;9.80;99.90;;;;;;5062709;27;19956;-69
2023/01/07 14:45:33;;;;;;;;;;;9.80;99.90;;;;;;5062200;28;19984;-70
2023/01/07 14:48:02;;;;;;;;;;;9.80;99.90;;;;;;5075482;27;19983;-69